Packwood, WA (98361)

7:56 PM PST on January 18, 2017 (GMT -0800)
| | Change Station
Active Advisory: Areal Flood Watch Active Notice: Public Information Statement

Elev -9999 ft 0.00 °N, 0.00 °E | Updated 1 minute ago

Overcast
Overcast
°F
Feels Like °F
N
Wind Variable Wind from North
Gusts mph

Today
High -- | Low -- °F
--% Chance of Precip.
Yesterday
High -- | Low -- °F
Precip. -- in
Pressure 29.24 in
Visibility 10.0 miles
Clouds Overcast 4600 ft
Dew Point Not available.
Humidity Not available.
Rainfall --
Snow Depth Not available.
7:44 AM 4:50 PM
Waning Gibbous, 57% visible
SPECI KTCM 190259Z AUTO 15007KT 10SM -RA OVC046 10/10 A2924 RMK AO2 RAB59 $
Pressure 29.24 in
Visibility 10.0 miles
Clouds Overcast 4600 ft
Dew Point Not available.
Humidity Not available.
Rainfall --
Snow Depth Not available.
7:44 AM 4:50 PM
Waning Gibbous, 57% visible
SPECI KTCM 190259Z AUTO 15007KT 10SM -RA OVC046 10/10 A2924 RMK AO2 RAB59 $

Get Your Daily Forecast Email!

Thanks for signing up!

Be on the lookout for a verification email in your inbox.

You'll start receiving the daily forecast at 8 AM.

×

10-Day Weather Forecast

Almanac

Astronomy

Jan. 18, 2017 Rise Set
Actual Time
Civil Twilight
Nautical Twilight
Astronomical Twilight
Moon
Length of Visible Light
Length of Day
Tomorrow will be .
, % of the Moon is Illuminated

Today's Extremes

State Highs State Lows

Community

WunderPhotos

Upload Photos

1,962,540 photos uploaded!

WunderBlog® & News

Nearby

Air Quality

  Air Quality AQ Index Pollutant
Not available.

Snow Depth

Station Depth Elevation

Earthquake Activity

City Distance Mag. Time & Date
Minimum magnitude displayed is 2.5.

Coastal Water Temperatures

Place Temperature

Stations

Nearby Weather Stations

Station Location Temp. Windchill Dew Point Humidity Wind Precip. Elev Updated Type
                   

Watches & Warnings

Areal Flood Watch
Issued: 2:57 PM PST Jan. 18, 2017 – National Weather Service

... Flood Watch remains in effect until midnight PST tonight...

The Flood Watch continues for

* a portion of west central Washington... including the following
counties... King... Lewis and Pierce.

* Until midnight PST tonight

* rainfall has decreased to showers across the area and snow
levels are falling. But it is possible that a few rivers in this
area could still reach flood stage. If flooding does occur later
today or this evening, the rivers more likely to reach flood
stage include the Newaukum near Chehalis and the White River
around the r street bridge.

Precautionary/preparedness actions...

A Flood Watch means there is a potential for flooding based on
current forecasts.

You should monitor later forecasts and be alert for possible
flood warnings. Those living in areas prone to flooding should be
prepared to take action should flooding develop.